Boka — J8B4647 — position and weather

sailwx.info

Track history (hours):
 
Tides and Currents Weather Stations Pressure Air Temp Water Temp Dewpoint Dewpoint Depression Visibility Wind Speed Wind Dir Waves Ship Positions

Boka

Last reported at 2018-Jun-24 18:30 UTC. Time now 2018-Jun-24 18:38 UTC.
Position N 49°29' W 000°07'.

Length 176 m; draft 6 m.

Type: Cargo ship. MMSI: 376207000.

Date/timePositionNaut miles runAvg speedWind from/ knotsBaromVisibWave heightAir tempDewpointWater temp
2018-Jun-24 18:30N 49°29' W 000°07'0 0.0
2018-Jun-24 18:00N 49°29' W 000°07'0 0.2
2018-Jun-24 17:30N 49°29' W 000°07'0 0.3
2018-Jun-24 17:00N 49°29' W 000°07'0 0.0
2018-Jun-24 16:30N 49°29' W 000°07'0 0.0
2018-Jun-24 16:00N 49°29' W 000°07'0 0.0
2018-Jun-24 15:30N 49°29' W 000°07'0 0.1
2018-Jun-24 15:00N 49°29' W 000°07'0 0.0
2018-Jun-24 14:30N 49°29' W 000°07'0 0.0
2018-Jun-24 14:00N 49°29' W 000°07'0 0.0
2018-Jun-24 13:30N 49°29' W 000°07'0 0.0
2018-Jun-24 13:00N 49°29' W 000°07'0 0.0
2018-Jun-24 12:30N 49°29' W 000°07'0 0.0
2018-Jun-24 12:00N 49°29' W 000°07'0 0.0
2018-Jun-24 11:30N 49°29' W 000°07'0 0.0
2018-Jun-24 11:00N 49°29' W 000°07'1 1.1
2018-Jun-24 10:30N 49°29' W 000°08'2 4.2
2018-Jun-24 10:00N 49°30' W 000°11'5 9.5
2018-Jun-24 09:30N 49°32' W 000°17'611.9
2018-Jun-24 09:00N 49°35' W 000°26'713.2
2018-Jun-24 08:30N 49°37' W 000°35'713.5
2018-Jun-24 08:00N 49°40' W 000°44'714.2
2018-Jun-24 07:30N 49°43' W 000°54'714.5
2018-Jun-24 07:00N 49°47' W 001°04'715.1
2018-Jun-24 06:30N 49°50' W 001°15'815.7
2018-Jun-24 06:00N 49°50' W 001°27'816.1
2018-Jun-24 05:30N 49°51' W 001°39'816.8
2018-Jun-24 05:00N 49°52' W 001°52'1216.2
2018-Jun-24 04:17N 49°53' W 002°10'515.2
2018-Jun-24 03:57N 49°53' W 002°18'715.1
2018-Jun-24 03:29N 49°52' W 002°29'714.8
2018-Jun-24 03:00N 49°50' W 002°40'714.5
2018-Jun-24 02:30N 49°48' W 002°50'714.0
2018-Jun-24 02:00N 49°44' W 002°60'713.8
2018-Jun-24 01:30N 49°41' W 003°09'713.7
2018-Jun-24 01:00N 49°38' W 003°18'713.7
2018-Jun-24 00:28N 49°34' W 003°28'613.5
2018-Jun-24 00:00N 49°31' W 003°37'1713.3
2018-Jun-23 22:44N 49°23' W 003°59'613.0
2018-Jun-23 22:16N 49°20' W 004°07'412.9
2018-Jun-23 22:00N 49°18' W 004°12'812.7
2018-Jun-23 21:24N 49°14' W 004°23'1512.7
2018-Jun-23 20:14N 49°07' W 004°42'612.4
2018-Jun-23 19:47N 49°04' W 004°50'312.2
2018-Jun-23 19:31N 49°03' W 004°54'612.2
2018-Jun-23 19:00N 48°60' W 005°02'612.1
2018-Jun-23 18:30N 48°56' W 005°10'612.1
2018-Jun-23 18:00N 48°54' W 005°18'612.1
2018-Jun-23 17:31N 48°50' W 005°26'612.2
2018-Jun-23 17:00N 48°48' W 005°34'612.5
2018-Jun-23 16:30N 48°43' W 005°40'612.9
2018-Jun-23 16:00N 48°37' W 005°45'713.2
2018-Jun-23 15:30N 48°31' W 005°49'813.1
2018-Jun-23 14:53N 48°24' W 005°55'54912.2
2018-Jun-21 17:52N 39°42' W 009°50'613.2
2018-Jun-21 17:26N 39°36' W 009°50'613.1
2018-Jun-21 17:00N 39°30' W 009°50'612.9
2018-Jun-21 16:30N 39°24' W 009°51'713.2
2018-Jun-21 16:00N 39°17' W 009°51'713.2
2018-Jun-21 15:30N 39°11' W 009°51'713.2
2018-Jun-21 15:00N 39°04' W 009°51'713.2
2018-Jun-21 14:30N 38°58' W 009°51'713.1
2018-Jun-21 14:00N 38°51' W 009°51'613.1
2018-Jun-21 13:30N 38°44' W 009°51'612.8
2018-Jun-21 13:00N 38°38' W 009°50'713.2
2018-Jun-21 12:31N 38°32' W 009°48'713.1
2018-Jun-21 12:01N 38°25' W 009°46'713.5
2018-Jun-21 11:31N 38°19' W 009°43'713.2
2018-Jun-21 11:01N 38°12' W 009°41'713.6
2018-Jun-21 10:30N 38°06' W 009°40'714.2
2018-Jun-21 10:00N 37°59' W 009°38'713.9
2018-Jun-21 09:30N 37°52' W 009°36'714.0
2018-Jun-21 09:00N 37°45' W 009°34'713.7
2018-Jun-21 08:31N 37°39' W 009°32'814.0
2018-Jun-21 07:55N 37°30' W 009°30'613.7
2018-Jun-21 07:30N 37°25' W 009°28'713.7
2018-Jun-21 07:00N 37°18' W 009°26'813.9
2018-Jun-21 06:27N 37°11' W 009°24'614.0
2018-Jun-21 06:00N 37°05' W 009°22'713.8
2018-Jun-21 05:30N 36°58' W 009°20'713.2
2018-Jun-21 04:58N 36°51' W 009°17'713.6
2018-Jun-21 04:29N 36°47' W 009°11'713.1
2018-Jun-21 03:56N 36°44' W 009°03'613.5
2018-Jun-21 03:28N 36°42' W 008°56'1813.7
2018-Jun-21 02:11N 36°36' W 008°35'314.3
2018-Jun-21 01:59N 36°36' W 008°31'713.6
2018-Jun-21 01:26N 36°33' W 008°22'1313.7
2018-Jun-21 00:30N 36°29' W 008°08'1014.0
2018-Jun-20 23:46N 36°26' W 007°55'34513.2
2018-Jun-19 21:36N 36°35' W 000°46'114.0
2018-Jun-19 21:30N 36°36' W 000°44'714.2
2018-Jun-19 21:00N 36°36' W 000°35'1513.8
2018-Jun-19 19:53N 36°38' W 000°16'2014.3
2018-Jun-19 18:30N 36°41' E 000°08'  
Track history (hours):
 
Tides and Currents Weather Stations Pressure Air Temp Water Temp Dewpoint Dewpoint Depression Visibility Wind Speed Wind Dir Waves Ship Positions

Boka

Last reported at 2018-Jun-24 18:30 UTC. Time now 2018-Jun-24 18:38 UTC.
Position N 49°29' W 000°07'.

Length 176 m; draft 6 m.

Type: Cargo ship. MMSI: 376207000.

Date/timePositionNaut miles runAvg speedWind from/ knotsBaromVisibWave heightAir tempDewpointWater temp
2018-Jun-24 18:30N 49°29' W 000°07'0 0.0
2018-Jun-24 18:00N 49°29' W 000°07'0 0.2
2018-Jun-24 17:30N 49°29' W 000°07'0 0.3
2018-Jun-24 17:00N 49°29' W 000°07'0 0.0
2018-Jun-24 16:30N 49°29' W 000°07'0 0.0
2018-Jun-24 16:00N 49°29' W 000°07'0 0.0
2018-Jun-24 15:30N 49°29' W 000°07'0 0.1
2018-Jun-24 15:00N 49°29' W 000°07'0 0.0
2018-Jun-24 14:30N 49°29' W 000°07'0 0.0
2018-Jun-24 14:00N 49°29' W 000°07'0 0.0
2018-Jun-24 13:30N 49°29' W 000°07'0 0.0
2018-Jun-24 13:00N 49°29' W 000°07'0 0.0
2018-Jun-24 12:30N 49°29' W 000°07'0 0.0
2018-Jun-24 12:00N 49°29' W 000°07'0 0.0
2018-Jun-24 11:30N 49°29' W 000°07'0 0.0
2018-Jun-24 11:00N 49°29' W 000°07'1 1.1
2018-Jun-24 10:30N 49°29' W 000°08'2 4.2
2018-Jun-24 10:00N 49°30' W 000°11'5 9.5
2018-Jun-24 09:30N 49°32' W 000°17'611.9
2018-Jun-24 09:00N 49°35' W 000°26'713.2
2018-Jun-24 08:30N 49°37' W 000°35'713.5
2018-Jun-24 08:00N 49°40' W 000°44'714.2
2018-Jun-24 07:30N 49°43' W 000°54'714.5
2018-Jun-24 07:00N 49°47' W 001°04'715.1
2018-Jun-24 06:30N 49°50' W 001°15'815.7
2018-Jun-24 06:00N 49°50' W 001°27'816.1
2018-Jun-24 05:30N 49°51' W 001°39'816.8
2018-Jun-24 05:00N 49°52' W 001°52'1216.2
2018-Jun-24 04:17N 49°53' W 002°10'515.2
2018-Jun-24 03:57N 49°53' W 002°18'715.1
2018-Jun-24 03:29N 49°52' W 002°29'714.8
2018-Jun-24 03:00N 49°50' W 002°40'714.5
2018-Jun-24 02:30N 49°48' W 002°50'714.0
2018-Jun-24 02:00N 49°44' W 002°60'713.8
2018-Jun-24 01:30N 49°41' W 003°09'713.7
2018-Jun-24 01:00N 49°38' W 003°18'713.7
2018-Jun-24 00:28N 49°34' W 003°28'613.5
2018-Jun-24 00:00N 49°31' W 003°37'1713.3
2018-Jun-23 22:44N 49°23' W 003°59'613.0
2018-Jun-23 22:16N 49°20' W 004°07'412.9
2018-Jun-23 22:00N 49°18' W 004°12'812.7
2018-Jun-23 21:24N 49°14' W 004°23'1512.7
2018-Jun-23 20:14N 49°07' W 004°42'612.4
2018-Jun-23 19:47N 49°04' W 004°50'312.2
2018-Jun-23 19:31N 49°03' W 004°54'612.2
2018-Jun-23 19:00N 48°60' W 005°02'612.1
2018-Jun-23 18:30N 48°56' W 005°10'612.1
2018-Jun-23 18:00N 48°54' W 005°18'612.1
2018-Jun-23 17:31N 48°50' W 005°26'612.2
2018-Jun-23 17:00N 48°48' W 005°34'612.5
2018-Jun-23 16:30N 48°43' W 005°40'612.9
2018-Jun-23 16:00N 48°37' W 005°45'713.2
2018-Jun-23 15:30N 48°31' W 005°49'813.1
2018-Jun-23 14:53N 48°24' W 005°55'54912.2
2018-Jun-21 17:52N 39°42' W 009°50'613.2
2018-Jun-21 17:26N 39°36' W 009°50'613.1
2018-Jun-21 17:00N 39°30' W 009°50'612.9
2018-Jun-21 16:30N 39°24' W 009°51'713.2
2018-Jun-21 16:00N 39°17' W 009°51'713.2
2018-Jun-21 15:30N 39°11' W 009°51'713.2
2018-Jun-21 15:00N 39°04' W 009°51'713.2
2018-Jun-21 14:30N 38°58' W 009°51'713.1
2018-Jun-21 14:00N 38°51' W 009°51'613.1
2018-Jun-21 13:30N 38°44' W 009°51'612.8
2018-Jun-21 13:00N 38°38' W 009°50'713.2
2018-Jun-21 12:31N 38°32' W 009°48'713.1
2018-Jun-21 12:01N 38°25' W 009°46'713.5
2018-Jun-21 11:31N 38°19' W 009°43'713.2
2018-Jun-21 11:01N 38°12' W 009°41'713.6
2018-Jun-21 10:30N 38°06' W 009°40'714.2
2018-Jun-21 10:00N 37°59' W 009°38'713.9
2018-Jun-21 09:30N 37°52' W 009°36'714.0
2018-Jun-21 09:00N 37°45' W 009°34'713.7
2018-Jun-21 08:31N 37°39' W 009°32'814.0
2018-Jun-21 07:55N 37°30' W 009°30'613.7
2018-Jun-21 07:30N 37°25' W 009°28'713.7
2018-Jun-21 07:00N 37°18' W 009°26'813.9
2018-Jun-21 06:27N 37°11' W 009°24'614.0
2018-Jun-21 06:00N 37°05' W 009°22'713.8
2018-Jun-21 05:30N 36°58' W 009°20'713.2
2018-Jun-21 04:58N 36°51' W 009°17'713.6
2018-Jun-21 04:29N 36°47' W 009°11'713.1
2018-Jun-21 03:56N 36°44' W 009°03'613.5
2018-Jun-21 03:28N 36°42' W 008°56'1813.7
2018-Jun-21 02:11N 36°36' W 008°35'314.3
2018-Jun-21 01:59N 36°36' W 008°31'713.6
2018-Jun-21 01:26N 36°33' W 008°22'1313.7
2018-Jun-21 00:30N 36°29' W 008°08'1014.0
2018-Jun-20 23:46N 36°26' W 007°55'34513.2
2018-Jun-19 21:36N 36°35' W 000°46'114.0
2018-Jun-19 21:30N 36°36' W 000°44'714.2
2018-Jun-19 21:00N 36°36' W 000°35'1513.8
2018-Jun-19 19:53N 36°38' W 000°16'2014.3
2018-Jun-19 18:30N 36°41' E 000°08'  

Dump ship's entire track history